LFBO Airport Information

Runway Information
Runway 14L Length 9843 ft width 148 ft
Elevation 490 ft Threshold 0 ft Heading 143
Runway 32R Length 9843 ft Width 148 ft
Elevation 497 ft Threshold 0 ft Heading 323
Runway 14R Length 11483 ft width 148 ft
Elevation 488 ft Threshold 0 ft Heading 143
Runway 32L Length 11483 ft Width 148 ft
Elevation 497 ft Threshold 0 ft Heading 323
Airport Frequencies
Type AFIS Name TOULOUSE I Frequency 121.25 MHZ
Type APP Name APP Frequency 121.1 MHZ
Type APP Name TOULOUSE A Frequency 125.175 MHZ
Type ATIS Name ATIS Frequency 123.125 MHZ
Type CLD Name CLNC DEL Frequency 121.7 MHZ
Type GND Name GND Frequency 121.9 MHZ
Type TWR Name TWR Frequency 118.1 MHZ
Airport Navaids
Type NDB Name Toulouse Frequency 415 KHZ
Type VOR-DME Name Toulouse Frequency 117700 KHZ
Type NDB Name Toulouse Frequency 423 KHZ
Type NDB Name Toulouse Frequency 406 KHZ
Airport Weather Information & NOTAM
ADDS - METARS form results

(0647 UTC 04 July 2020)
Data provider http://aviationweather.gov/metar/data/
 
METAR text: LFBO 040630Z AUTO 30004KT 270V330 CAVOK 17/12 Q1024 NOSIG
Conditions at: LFBO (TOULOUSE/BLAGNAC, FR) observed 0630 UTC 04 July 2020
Temperature: 17.0°C (63°F)
Dewpoint: 12.0°C (54°F) [RH = 72%]
Pressure (altimeter): 30.24 inches Hg (1024.0 mb)
Winds: from the WNW (300 degrees) at 5 MPH (4 knots; 2.1 m/s)
Visibility: 6 or more miles (10+ km)
Ceiling: ceiling and visibility are OK
Clouds: unknown
Weather: no significant weather observed at this time

METAR text: LFBO 040600Z AUTO 29003KT CAVOK 16/12 Q1024 NOSIG
Conditions at: LFBO (TOULOUSE/BLAGNAC, FR) observed 0600 UTC 04 July 2020
Temperature: 16.0°C (61°F)
Dewpoint: 12.0°C (54°F) [RH = 77%]
Pressure (altimeter): 30.24 inches Hg (1024.0 mb)
Winds: from the WNW (290 degrees) at 3 MPH (3 knots; 1.5 m/s)
Visibility: 6 or more miles (10+ km)
Ceiling: ceiling and visibility are OK
Clouds: unknown
Weather: no significant weather observed at this time

Forecast for: LFBO (TOULOUSE/BLAGNAC, FR)
Text: TAF LFBO 040500Z 0406/0512 30007KT CAVOK
Forecast period: 0600 UTC 04 July 2020 to 1200 UTC 05 July 2020
Forecast type: FROM: standard forecast or significant change
Winds: from the WNW (300 degrees) at 8 MPH (7 knots; 3.6 m/s)
Visibility: 6 or more miles 10+ km)
Ceiling: unknown
Clouds: missing
Weather: NSW  (no significant weather)
Text: TEMPO 0503/0510 VRB02KT
Forecast period: 0300 to 1000 UTC 05 July 2020
Forecast type: TEMPORARY: The following changes expected for less than half the time period
Winds: variable direction winds at 2 MPH (2 knots; 1.0 m/s)
Visibility: missing
Ceiling: unknown
Clouds: missing
Weather: no significant weather forecast for this period